sensor_id;sensor_type;location;lat;lon;timestamp;P1;durP1;ratioP1;P2;durP2;ratioP2
58470;SDS011;44258;51.288;12.068;2022-12-07T00:01:16;20.02;;;7.93;;
58470;SDS011;44258;51.288;12.068;2022-12-07T00:03:45;18.23;;;7.28;;
58470;SDS011;44258;51.288;12.068;2022-12-07T00:06:13;20.45;;;8.02;;
58470;SDS011;44258;51.288;12.068;2022-12-07T00:08:41;22.13;;;7.85;;
58470;SDS011;44258;51.288;12.068;2022-12-07T00:11:08;18.70;;;7.80;;
58470;SDS011;44258;51.288;12.068;2022-12-07T00:13:38;18.95;;;8.07;;
58470;SDS011;44258;51.288;12.068;2022-12-07T00:16:06;18.92;;;7.82;;
58470;SDS011;44258;51.288;12.068;2022-12-07T00:18:39;18.88;;;7.63;;
58470;SDS011;44258;51.288;12.068;2022-12-07T00:21:08;19.73;;;8.18;;
58470;SDS011;44258;51.288;12.068;2022-12-07T00:23:37;19.80;;;7.78;;
58470;SDS011;44258;51.288;12.068;2022-12-07T00:26:05;19.55;;;7.85;;
58470;SDS011;44258;51.288;12.068;2022-12-07T00:28:33;19.40;;;7.60;;
58470;SDS011;44258;51.288;12.068;2022-12-07T00:31:01;19.42;;;7.30;;
58470;SDS011;44258;51.288;12.068;2022-12-07T00:33:29;20.92;;;8.10;;
58470;SDS011;44258;51.288;12.068;2022-12-07T00:35:57;20.83;;;8.52;;
58470;SDS011;44258;51.288;12.068;2022-12-07T00:38:27;21.05;;;8.13;;
58470;SDS011;44258;51.288;12.068;2022-12-07T00:40:55;20.83;;;7.40;;
58470;SDS011;44258;51.288;12.068;2022-12-07T00:43:22;22.65;;;8.65;;
58470;SDS011;44258;51.288;12.068;2022-12-07T00:45:49;21.20;;;8.48;;
58470;SDS011;44258;51.288;12.068;2022-12-07T00:48:16;21.27;;;8.05;;
58470;SDS011;44258;51.288;12.068;2022-12-07T00:50:43;22.00;;;8.30;;
58470;SDS011;44258;51.288;12.068;2022-12-07T00:53:12;19.75;;;8.35;;
58470;SDS011;44258;51.288;12.068;2022-12-07T00:55:38;24.42;;;8.98;;
58470;SDS011;44258;51.288;12.068;2022-12-07T00:58:05;22.67;;;8.18;;
58470;SDS011;44258;51.288;12.068;2022-12-07T01:00:34;20.00;;;7.80;;
58470;SDS011;44258;51.288;12.068;2022-12-07T01:03:02;19.40;;;8.10;;
58470;SDS011;44258;51.288;12.068;2022-12-07T01:05:29;24.02;;;7.28;;
58470;SDS011;44258;51.288;12.068;2022-12-07T01:07:56;19.23;;;7.57;;
58470;SDS011;44258;51.288;12.068;2022-12-07T01:10:25;21.13;;;7.93;;
58470;SDS011;44258;51.288;12.068;2022-12-07T01:12:52;19.77;;;8.18;;
58470;SDS011;44258;51.288;12.068;2022-12-07T01:15:19;22.00;;;7.90;;
58470;SDS011;44258;51.288;12.068;2022-12-07T01:17:46;20.58;;;7.68;;
58470;SDS011;44258;51.288;12.068;2022-12-07T01:20:13;19.02;;;7.25;;
58470;SDS011;44258;51.288;12.068;2022-12-07T01:22:41;17.30;;;7.90;;
58470;SDS011;44258;51.288;12.068;2022-12-07T01:25:09;19.33;;;7.20;;
58470;SDS011;44258;51.288;12.068;2022-12-07T01:27:39;17.92;;;7.60;;
58470;SDS011;44258;51.288;12.068;2022-12-07T01:30:07;20.48;;;8.57;;
58470;SDS011;44258;51.288;12.068;2022-12-07T01:32:36;20.55;;;7.40;;
58470;SDS011;44258;51.288;12.068;2022-12-07T01:35:03;20.73;;;8.00;;
58470;SDS011;44258;51.288;12.068;2022-12-07T01:37:33;21.40;;;7.82;;
58470;SDS011;44258;51.288;12.068;2022-12-07T01:40:02;20.50;;;7.13;;
58470;SDS011;44258;51.288;12.068;2022-12-07T01:42:30;20.35;;;7.32;;
58470;SDS011;44258;51.288;12.068;2022-12-07T01:48:07;20.40;;;7.05;;
58470;SDS011;44258;51.288;12.068;2022-12-07T01:50:35;22.23;;;7.95;;
58470;SDS011;44258;51.288;12.068;2022-12-07T01:53:05;20.10;;;7.68;;
58470;SDS011;44258;51.288;12.068;2022-12-07T01:55:35;21.65;;;7.75;;
58470;SDS011;44258;51.288;12.068;2022-12-07T01:58:06;18.85;;;7.05;;
58470;SDS011;44258;51.288;12.068;2022-12-07T02:00:33;20.70;;;7.70;;
58470;SDS011;44258;51.288;12.068;2022-12-07T02:03:01;22.52;;;7.32;;
58470;SDS011;44258;51.288;12.068;2022-12-07T02:05:32;19.15;;;7.25;;
58470;SDS011;44258;51.288;12.068;2022-12-07T02:08:00;22.08;;;8.52;;
58470;SDS011;44258;51.288;12.068;2022-12-07T02:10:29;20.67;;;7.20;;
58470;SDS011;44258;51.288;12.068;2022-12-07T02:12:58;19.75;;;7.35;;
58470;SDS011;44258;51.288;12.068;2022-12-07T02:15:33;18.40;;;6.68;;
58470;SDS011;44258;51.288;12.068;2022-12-07T02:18:09;19.08;;;6.93;;
58470;SDS011;44258;51.288;12.068;2022-12-07T02:20:45;16.60;;;6.43;;
58470;SDS011;44258;51.288;12.068;2022-12-07T02:23:30;17.83;;;7.05;;
58470;SDS011;44258;51.288;12.068;2022-12-07T02:29:15;19.27;;;6.60;;
58470;SDS011;44258;51.288;12.068;2022-12-07T02:31:49;19.38;;;7.00;;
58470;SDS011;44258;51.288;12.068;2022-12-07T02:34:25;17.88;;;7.10;;
58470;SDS011;44258;51.288;12.068;2022-12-07T02:36:58;20.33;;;6.97;;
58470;SDS011;44258;51.288;12.068;2022-12-07T02:39:29;19.10;;;6.70;;
58470;SDS011;44258;51.288;12.068;2022-12-07T02:42:06;15.88;;;6.47;;
58470;SDS011;44258;51.288;12.068;2022-12-07T02:44:40;17.85;;;6.57;;
58470;SDS011;44258;51.288;12.068;2022-12-07T02:47:09;21.65;;;6.82;;
58470;SDS011;44258;51.288;12.068;2022-12-07T02:49:40;16.52;;;6.32;;
58470;SDS011;44258;51.288;12.068;2022-12-07T02:52:07;18.75;;;6.57;;
58470;SDS011;44258;51.288;12.068;2022-12-07T02:54:34;17.65;;;6.18;;
58470;SDS011;44258;51.288;12.068;2022-12-07T02:57:04;18.52;;;6.72;;
58470;SDS011;44258;51.288;12.068;2022-12-07T02:59:39;17.42;;;6.60;;
58470;SDS011;44258;51.288;12.068;2022-12-07T03:02:22;18.17;;;5.75;;
58470;SDS011;44258;51.288;12.068;2022-12-07T03:04:59;15.48;;;6.40;;
58470;SDS011;44258;51.288;12.068;2022-12-07T03:07:36;17.58;;;6.10;;
58470;SDS011;44258;51.288;12.068;2022-12-07T03:10:12;18.90;;;6.77;;
58470;SDS011;44258;51.288;12.068;2022-12-07T03:12:45;19.88;;;6.63;;
58470;SDS011;44258;51.288;12.068;2022-12-07T03:15:24;17.35;;;6.40;;
58470;SDS011;44258;51.288;12.068;2022-12-07T03:17:56;17.35;;;6.45;;
58470;SDS011;44258;51.288;12.068;2022-12-07T03:20:26;14.82;;;5.80;;
58470;SDS011;44258;51.288;12.068;2022-12-07T03:22:55;17.88;;;6.68;;
58470;SDS011;44258;51.288;12.068;2022-12-07T03:25:24;19.35;;;6.43;;
58470;SDS011;44258;51.288;12.068;2022-12-07T03:27:53;19.25;;;6.43;;
58470;SDS011;44258;51.288;12.068;2022-12-07T03:30:24;17.25;;;5.65;;
58470;SDS011;44258;51.288;12.068;2022-12-07T03:32:56;15.73;;;5.60;;
58470;SDS011;44258;51.288;12.068;2022-12-07T03:35:28;16.88;;;5.78;;
58470;SDS011;44258;51.288;12.068;2022-12-07T03:38:00;14.70;;;6.07;;
58470;SDS011;44258;51.288;12.068;2022-12-07T03:40:37;15.52;;;6.13;;
58470;SDS011;44258;51.288;12.068;2022-12-07T03:43:06;17.92;;;6.15;;
58470;SDS011;44258;51.288;12.068;2022-12-07T03:45:38;15.30;;;6.57;;
58470;SDS011;44258;51.288;12.068;2022-12-07T03:48:07;14.60;;;6.10;;
58470;SDS011;44258;51.288;12.068;2022-12-07T03:50:41;17.80;;;6.45;;
58470;SDS011;44258;51.288;12.068;2022-12-07T03:53:15;17.65;;;6.32;;
58470;SDS011;44258;51.288;12.068;2022-12-07T03:55:46;16.08;;;6.30;;
58470;SDS011;44258;51.288;12.068;2022-12-07T03:58:16;16.58;;;5.95;;
58470;SDS011;44258;51.288;12.068;2022-12-07T04:00:46;16.17;;;6.13;;
58470;SDS011;44258;51.288;12.068;2022-12-07T04:03:13;16.65;;;6.00;;
58470;SDS011;44258;51.288;12.068;2022-12-07T04:05:40;14.75;;;5.95;;
58470;SDS011;44258;51.288;12.068;2022-12-07T04:08:08;17.60;;;6.55;;
58470;SDS011;44258;51.288;12.068;2022-12-07T04:10:34;20.10;;;6.85;;
58470;SDS011;44258;51.288;12.068;2022-12-07T04:13:04;17.60;;;5.93;;
58470;SDS011;44258;51.288;12.068;2022-12-07T04:15:31;15.75;;;6.43;;
58470;SDS011;44258;51.288;12.068;2022-12-07T04:17:59;15.07;;;6.30;;
58470;SDS011;44258;51.288;12.068;2022-12-07T04:20:26;19.17;;;7.03;;
58470;SDS011;44258;51.288;12.068;2022-12-07T04:22:55;16.70;;;6.70;;
58470;SDS011;44258;51.288;12.068;2022-12-07T04:25:22;19.35;;;6.50;;
58470;SDS011;44258;51.288;12.068;2022-12-07T04:27:49;17.88;;;6.20;;
58470;SDS011;44258;51.288;12.068;2022-12-07T04:30:15;18.73;;;6.65;;
58470;SDS011;44258;51.288;12.068;2022-12-07T04:32:43;15.75;;;6.25;;
58470;SDS011;44258;51.288;12.068;2022-12-07T04:35:11;16.95;;;6.80;;
58470;SDS011;44258;51.288;12.068;2022-12-07T04:37:38;18.08;;;6.47;;
58470;SDS011;44258;51.288;12.068;2022-12-07T04:40:05;16.65;;;5.75;;
58470;SDS011;44258;51.288;12.068;2022-12-07T04:42:36;16.35;;;6.53;;
58470;SDS011;44258;51.288;12.068;2022-12-07T04:45:03;17.55;;;7.05;;
58470;SDS011;44258;51.288;12.068;2022-12-07T04:47:30;18.63;;;7.03;;
58470;SDS011;44258;51.288;12.068;2022-12-07T04:49:56;17.80;;;6.63;;
58470;SDS011;44258;51.288;12.068;2022-12-07T04:52:24;16.77;;;6.32;;
58470;SDS011;44258;51.288;12.068;2022-12-07T04:54:51;16.27;;;5.85;;
58470;SDS011;44258;51.288;12.068;2022-12-07T04:57:18;17.20;;;6.68;;
58470;SDS011;44258;51.288;12.068;2022-12-07T04:59:44;17.48;;;6.55;;
58470;SDS011;44258;51.288;12.068;2022-12-07T05:02:11;18.77;;;7.45;;
58470;SDS011;44258;51.288;12.068;2022-12-07T05:04:38;16.10;;;6.13;;
58470;SDS011;44258;51.288;12.068;2022-12-07T05:07:04;17.25;;;6.38;;
58470;SDS011;44258;51.288;12.068;2022-12-07T05:09:33;18.90;;;7.07;;
58470;SDS011;44258;51.288;12.068;2022-12-07T05:11:59;18.42;;;6.30;;
58470;SDS011;44258;51.288;12.068;2022-12-07T05:14:26;18.95;;;6.72;;
58470;SDS011;44258;51.288;12.068;2022-12-07T05:16:53;18.20;;;7.53;;
58470;SDS011;44258;51.288;12.068;2022-12-07T05:19:19;16.25;;;6.70;;
58470;SDS011;44258;51.288;12.068;2022-12-07T05:21:46;16.60;;;6.65;;
58470;SDS011;44258;51.288;12.068;2022-12-07T05:24:14;17.92;;;7.00;;
58470;SDS011;44258;51.288;12.068;2022-12-07T05:26:43;19.02;;;7.40;;
58470;SDS011;44258;51.288;12.068;2022-12-07T05:29:11;19.90;;;7.80;;
58470;SDS011;44258;51.288;12.068;2022-12-07T05:31:39;18.33;;;8.00;;
58470;SDS011;44258;51.288;12.068;2022-12-07T05:34:05;18.52;;;7.65;;
58470;SDS011;44258;51.288;12.068;2022-12-07T05:36:33;19.80;;;8.07;;
58470;SDS011;44258;51.288;12.068;2022-12-07T05:39:00;18.48;;;8.10;;
58470;SDS011;44258;51.288;12.068;2022-12-07T05:41:26;19.27;;;8.38;;
58470;SDS011;44258;51.288;12.068;2022-12-07T05:44:12;25.13;;;8.68;;
58470;SDS011;44258;51.288;12.068;2022-12-07T05:46:38;22.13;;;8.63;;
58470;SDS011;44258;51.288;12.068;2022-12-07T05:49:05;21.42;;;9.20;;
58470;SDS011;44258;51.288;12.068;2022-12-07T05:51:32;23.92;;;9.13;;
58470;SDS011;44258;51.288;12.068;2022-12-07T05:53:59;24.50;;;8.45;;
58470;SDS011;44258;51.288;12.068;2022-12-07T05:56:26;25.63;;;8.70;;
58470;SDS011;44258;51.288;12.068;2022-12-07T05:58:52;25.27;;;9.13;;
58470;SDS011;44258;51.288;12.068;2022-12-07T06:01:39;23.92;;;10.07;;
58470;SDS011;44258;51.288;12.068;2022-12-07T06:04:06;27.65;;;10.85;;
58470;SDS011;44258;51.288;12.068;2022-12-07T06:06:33;23.63;;;9.25;;
58470;SDS011;44258;51.288;12.068;2022-12-07T06:08:59;24.55;;;9.95;;
58470;SDS011;44258;51.288;12.068;2022-12-07T06:11:26;24.98;;;9.50;;
58470;SDS011;44258;51.288;12.068;2022-12-07T06:14:11;26.98;;;9.98;;
58470;SDS011;44258;51.288;12.068;2022-12-07T06:16:39;26.33;;;10.05;;
58470;SDS011;44258;51.288;12.068;2022-12-07T06:19:06;30.00;;;11.07;;
58470;SDS011;44258;51.288;12.068;2022-12-07T06:21:35;28.33;;;10.43;;
58470;SDS011;44258;51.288;12.068;2022-12-07T06:24:02;28.42;;;10.25;;
58470;SDS011;44258;51.288;12.068;2022-12-07T06:26:29;26.85;;;10.30;;
58470;SDS011;44258;51.288;12.068;2022-12-07T06:28:55;25.70;;;9.70;;
58470;SDS011;44258;51.288;12.068;2022-12-07T06:31:22;24.52;;;9.52;;
58470;SDS011;44258;51.288;12.068;2022-12-07T06:33:51;25.48;;;10.35;;
58470;SDS011;44258;51.288;12.068;2022-12-07T06:36:23;24.60;;;10.00;;
58470;SDS011;44258;51.288;12.068;2022-12-07T06:38:50;27.27;;;10.30;;
58470;SDS011;44258;51.288;12.068;2022-12-07T06:41:17;27.05;;;9.27;;
58470;SDS011;44258;51.288;12.068;2022-12-07T06:43:43;25.75;;;9.70;;
58470;SDS011;44258;51.288;12.068;2022-12-07T06:46:10;26.98;;;9.75;;
58470;SDS011;44258;51.288;12.068;2022-12-07T06:48:40;24.15;;;10.10;;
58470;SDS011;44258;51.288;12.068;2022-12-07T06:51:09;23.88;;;9.27;;
58470;SDS011;44258;51.288;12.068;2022-12-07T06:53:36;22.45;;;10.05;;
58470;SDS011;44258;51.288;12.068;2022-12-07T06:56:03;25.45;;;9.55;;
58470;SDS011;44258;51.288;12.068;2022-12-07T06:58:31;24.05;;;9.55;;
58470;SDS011;44258;51.288;12.068;2022-12-07T07:00:58;24.85;;;10.30;;
58470;SDS011;44258;51.288;12.068;2022-12-07T07:03:24;26.35;;;9.57;;
58470;SDS011;44258;51.288;12.068;2022-12-07T07:05:51;23.88;;;10.52;;
58470;SDS011;44258;51.288;12.068;2022-12-07T07:08:19;25.90;;;10.07;;
58470;SDS011;44258;51.288;12.068;2022-12-07T07:10:46;24.58;;;9.02;;
58470;SDS011;44258;51.288;12.068;2022-12-07T07:13:13;22.60;;;9.43;;
58470;SDS011;44258;51.288;12.068;2022-12-07T07:15:39;22.50;;;9.02;;
58470;SDS011;44258;51.288;12.068;2022-12-07T07:18:06;27.55;;;10.35;;
58470;SDS011;44258;51.288;12.068;2022-12-07T07:20:33;25.48;;;9.90;;
58470;SDS011;44258;51.288;12.068;2022-12-07T07:22:59;22.88;;;8.88;;
58470;SDS011;44258;51.288;12.068;2022-12-07T07:25:28;22.02;;;8.75;;
58470;SDS011;44258;51.288;12.068;2022-12-07T07:27:55;21.90;;;8.95;;
58470;SDS011;44258;51.288;12.068;2022-12-07T07:30:22;21.52;;;9.02;;
58470;SDS011;44258;51.288;12.068;2022-12-07T07:32:49;22.73;;;8.32;;
58470;SDS011;44258;51.288;12.068;2022-12-07T07:35:16;26.05;;;9.98;;
58470;SDS011;44258;51.288;12.068;2022-12-07T07:37:43;22.98;;;9.80;;
58470;SDS011;44258;51.288;12.068;2022-12-07T07:40:10;25.73;;;9.50;;
58470;SDS011;44258;51.288;12.068;2022-12-07T07:42:41;26.45;;;9.55;;
58470;SDS011;44258;51.288;12.068;2022-12-07T07:45:08;23.80;;;9.57;;
58470;SDS011;44258;51.288;12.068;2022-12-07T07:47:35;24.55;;;9.23;;
58470;SDS011;44258;51.288;12.068;2022-12-07T07:50:02;24.17;;;8.77;;
58470;SDS011;44258;51.288;12.068;2022-12-07T07:52:29;22.20;;;9.80;;
58470;SDS011;44258;51.288;12.068;2022-12-07T07:54:57;20.05;;;8.05;;
58470;SDS011;44258;51.288;12.068;2022-12-07T07:57:24;20.77;;;8.23;;
58470;SDS011;44258;51.288;12.068;2022-12-07T07:59:52;19.20;;;7.78;;
58470;SDS011;44258;51.288;12.068;2022-12-07T08:02:19;20.70;;;8.07;;
58470;SDS011;44258;51.288;12.068;2022-12-07T08:04:47;20.85;;;7.32;;
58470;SDS011;44258;51.288;12.068;2022-12-07T08:07:14;20.08;;;8.27;;
58470;SDS011;44258;51.288;12.068;2022-12-07T08:09:41;21.80;;;7.78;;
58470;SDS011;44258;51.288;12.068;2022-12-07T08:12:11;23.92;;;8.35;;
58470;SDS011;44258;51.288;12.068;2022-12-07T08:14:37;20.45;;;7.57;;
58470;SDS011;44258;51.288;12.068;2022-12-07T08:17:05;20.48;;;8.10;;
58470;SDS011;44258;51.288;12.068;2022-12-07T08:19:32;22.98;;;8.50;;
58470;SDS011;44258;51.288;12.068;2022-12-07T08:21:59;17.65;;;7.93;;
58470;SDS011;44258;51.288;12.068;2022-12-07T08:24:26;21.33;;;8.02;;
58470;SDS011;44258;51.288;12.068;2022-12-07T08:26:53;22.30;;;8.55;;
58470;SDS011;44258;51.288;12.068;2022-12-07T08:29:20;19.88;;;8.25;;
58470;SDS011;44258;51.288;12.068;2022-12-07T08:31:47;19.45;;;7.93;;
58470;SDS011;44258;51.288;12.068;2022-12-07T08:34:15;21.50;;;7.90;;
58470;SDS011;44258;51.288;12.068;2022-12-07T08:36:42;18.23;;;7.75;;
58470;SDS011;44258;51.288;12.068;2022-12-07T08:39:08;16.15;;;6.80;;
58470;SDS011;44258;51.288;12.068;2022-12-07T08:41:35;18.70;;;7.88;;
58470;SDS011;44258;51.288;12.068;2022-12-07T08:44:02;19.73;;;7.65;;
58470;SDS011;44258;51.288;12.068;2022-12-07T08:46:30;18.30;;;6.82;;
58470;SDS011;44258;51.288;12.068;2022-12-07T08:49:02;19.35;;;7.32;;
58470;SDS011;44258;51.288;12.068;2022-12-07T08:51:34;20.17;;;7.90;;
58470;SDS011;44258;51.288;12.068;2022-12-07T08:54:01;20.88;;;7.82;;
58470;SDS011;44258;51.288;12.068;2022-12-07T08:56:34;17.23;;;7.20;;
58470;SDS011;44258;51.288;12.068;2022-12-07T08:59:01;15.90;;;7.05;;
58470;SDS011;44258;51.288;12.068;2022-12-07T09:01:28;19.42;;;7.97;;
58470;SDS011;44258;51.288;12.068;2022-12-07T09:03:54;19.45;;;7.93;;
58470;SDS011;44258;51.288;12.068;2022-12-07T09:06:21;18.08;;;8.48;;
58470;SDS011;44258;51.288;12.068;2022-12-07T09:08:51;18.23;;;6.75;;
58470;SDS011;44258;51.288;12.068;2022-12-07T09:11:22;20.55;;;8.32;;
58470;SDS011;44258;51.288;12.068;2022-12-07T09:13:48;19.23;;;7.93;;
58470;SDS011;44258;51.288;12.068;2022-12-07T09:16:15;18.73;;;7.15;;
58470;SDS011;44258;51.288;12.068;2022-12-07T09:18:42;19.25;;;7.60;;
58470;SDS011;44258;51.288;12.068;2022-12-07T09:21:08;18.65;;;7.47;;
58470;SDS011;44258;51.288;12.068;2022-12-07T09:23:35;18.55;;;6.95;;
58470;SDS011;44258;51.288;12.068;2022-12-07T09:26:07;19.65;;;7.43;;
58470;SDS011;44258;51.288;12.068;2022-12-07T09:28:33;18.95;;;6.82;;
58470;SDS011;44258;51.288;12.068;2022-12-07T09:31:01;16.65;;;6.53;;
58470;SDS011;44258;51.288;12.068;2022-12-07T09:33:31;16.92;;;6.60;;
58470;SDS011;44258;51.288;12.068;2022-12-07T09:35:57;14.25;;;6.35;;
58470;SDS011;44258;51.288;12.068;2022-12-07T09:38:24;16.58;;;6.60;;
58470;SDS011;44258;51.288;12.068;2022-12-07T09:40:51;15.52;;;6.78;;
58470;SDS011;44258;51.288;12.068;2022-12-07T09:43:22;17.92;;;6.70;;
58470;SDS011;44258;51.288;12.068;2022-12-07T09:45:51;17.05;;;6.40;;
58470;SDS011;44258;51.288;12.068;2022-12-07T09:48:21;17.98;;;6.40;;
58470;SDS011;44258;51.288;12.068;2022-12-07T09:50:51;15.52;;;6.65;;
58470;SDS011;44258;51.288;12.068;2022-12-07T09:53:24;16.85;;;5.80;;
58470;SDS011;44258;51.288;12.068;2022-12-07T09:55:53;16.38;;;6.80;;
58470;SDS011;44258;51.288;12.068;2022-12-07T09:58:22;15.60;;;6.03;;
58470;SDS011;44258;51.288;12.068;2022-12-07T10:00:52;12.55;;;5.07;;
58470;SDS011;44258;51.288;12.068;2022-12-07T10:03:21;14.55;;;5.65;;
58470;SDS011;44258;51.288;12.068;2022-12-07T10:05:49;13.05;;;5.28;;
58470;SDS011;44258;51.288;12.068;2022-12-07T10:08:17;12.23;;;4.75;;
58470;SDS011;44258;51.288;12.068;2022-12-07T10:10:44;12.50;;;5.20;;
58470;SDS011;44258;51.288;12.068;2022-12-07T10:13:15;12.60;;;5.03;;
58470;SDS011;44258;51.288;12.068;2022-12-07T10:15:51;13.98;;;5.10;;
58470;SDS011;44258;51.288;12.068;2022-12-07T10:21:00;14.00;;;5.03;;
58470;SDS011;44258;51.288;12.068;2022-12-07T10:23:29;15.02;;;4.32;;
58470;SDS011;44258;51.288;12.068;2022-12-07T10:25:55;14.98;;;5.00;;
58470;SDS011;44258;51.288;12.068;2022-12-07T10:28:22;13.90;;;4.95;;
58470;SDS011;44258;51.288;12.068;2022-12-07T10:30:55;13.93;;;5.22;;
58470;SDS011;44258;51.288;12.068;2022-12-07T10:33:28;13.13;;;5.05;;
58470;SDS011;44258;51.288;12.068;2022-12-07T10:35:57;12.05;;;4.78;;
58470;SDS011;44258;51.288;12.068;2022-12-07T10:38:24;11.15;;;4.28;;
58470;SDS011;44258;51.288;12.068;2022-12-07T10:41:02;11.38;;;4.90;;
58470;SDS011;44258;51.288;12.068;2022-12-07T10:43:30;13.82;;;4.80;;
58470;SDS011;44258;51.288;12.068;2022-12-07T10:48:57;13.40;;;4.90;;
58470;SDS011;44258;51.288;12.068;2022-12-07T10:51:32;15.13;;;4.95;;
58470;SDS011;44258;51.288;12.068;2022-12-07T10:54:10;12.90;;;4.78;;
58470;SDS011;44258;51.288;12.068;2022-12-07T10:56:50;12.82;;;4.72;;
58470;SDS011;44258;51.288;12.068;2022-12-07T11:02:27;10.63;;;3.53;;
58470;SDS011;44258;51.288;12.068;2022-12-07T11:05:15;11.20;;;3.40;;
58470;SDS011;44258;51.288;12.068;2022-12-07T11:07:51;9.73;;;4.20;;
58470;SDS011;44258;51.288;12.068;2022-12-07T11:10:29;12.05;;;3.55;;
58470;SDS011;44258;51.288;12.068;2022-12-07T11:13:11;12.25;;;3.53;;
58470;SDS011;44258;51.288;12.068;2022-12-07T11:15:53;13.15;;;3.95;;
58470;SDS011;44258;51.288;12.068;2022-12-07T11:18:30;10.32;;;3.55;;
58470;SDS011;44258;51.288;12.068;2022-12-07T11:21:05;9.93;;;3.83;;
58470;SDS011;44258;51.288;12.068;2022-12-07T11:23:40;8.48;;;3.22;;
58470;SDS011;44258;51.288;12.068;2022-12-07T11:26:14;9.23;;;3.70;;
58470;SDS011;44258;51.288;12.068;2022-12-07T11:28:58;9.75;;;3.83;;
58470;SDS011;44258;51.288;12.068;2022-12-07T11:31:36;11.15;;;3.53;;
58470;SDS011;44258;51.288;12.068;2022-12-07T11:36:46;7.55;;;2.97;;
58470;SDS011;44258;51.288;12.068;2022-12-07T11:39:20;12.20;;;4.05;;
58470;SDS011;44258;51.288;12.068;2022-12-07T11:41:52;9.05;;;3.58;;
58470;SDS011;44258;51.288;12.068;2022-12-07T11:44:25;8.18;;;2.95;;
58470;SDS011;44258;51.288;12.068;2022-12-07T11:46:59;9.02;;;3.38;;
58470;SDS011;44258;51.288;12.068;2022-12-07T11:49:34;7.53;;;3.03;;
58470;SDS011;44258;51.288;12.068;2022-12-07T11:52:09;9.25;;;3.33;;
58470;SDS011;44258;51.288;12.068;2022-12-07T11:54:45;7.68;;;2.80;;
58470;SDS011;44258;51.288;12.068;2022-12-07T11:57:12;9.10;;;3.35;;
58470;SDS011;44258;51.288;12.068;2022-12-07T11:59:45;7.85;;;2.90;;
58470;SDS011;44258;51.288;12.068;2022-12-07T12:02:19;11.93;;;3.10;;
58470;SDS011;44258;51.288;12.068;2022-12-07T12:04:53;9.73;;;3.83;;
58470;SDS011;44258;51.288;12.068;2022-12-07T12:07:22;10.10;;;4.13;;
58470;SDS011;44258;51.288;12.068;2022-12-07T12:09:51;10.05;;;4.10;;
58470;SDS011;44258;51.288;12.068;2022-12-07T12:12:31;8.20;;;3.13;;
58470;SDS011;44258;51.288;12.068;2022-12-07T12:15:18;6.88;;;2.67;;
58470;SDS011;44258;51.288;12.068;2022-12-07T12:18:00;6.53;;;2.50;;
58470;SDS011;44258;51.288;12.068;2022-12-07T12:20:45;6.68;;;2.40;;
58470;SDS011;44258;51.288;12.068;2022-12-07T12:23:16;6.85;;;2.28;;
58470;SDS011;44258;51.288;12.068;2022-12-07T12:25:47;4.68;;;1.90;;
58470;SDS011;44258;51.288;12.068;2022-12-07T12:28:18;8.68;;;2.30;;
58470;SDS011;44258;51.288;12.068;2022-12-07T12:31:04;5.22;;;1.75;;
58470;SDS011;44258;51.288;12.068;2022-12-07T12:33:33;5.03;;;2.10;;
58470;SDS011;44258;51.288;12.068;2022-12-07T12:38:49;6.50;;;2.10;;
58470;SDS011;44258;51.288;12.068;2022-12-07T12:44:40;5.95;;;1.67;;
58470;SDS011;44258;51.288;12.068;2022-12-07T12:50:21;5.68;;;1.65;;
58470;SDS011;44258;51.288;12.068;2022-12-07T12:53:00;5.32;;;2.40;;
58470;SDS011;44258;51.288;12.068;2022-12-07T12:59:00;5.82;;;1.83;;
58470;SDS011;44258;51.288;12.068;2022-12-07T13:01:51;5.95;;;2.20;;
58470;SDS011;44258;51.288;12.068;2022-12-07T13:04:27;4.97;;;2.20;;
58470;SDS011;44258;51.288;12.068;2022-12-07T13:07:00;6.70;;;2.50;;
58470;SDS011;44258;51.288;12.068;2022-12-07T13:09:29;7.97;;;3.00;;
58470;SDS011;44258;51.288;12.068;2022-12-07T13:12:02;5.78;;;2.22;;
58470;SDS011;44258;51.288;12.068;2022-12-07T13:14:51;4.43;;;1.95;;
58470;SDS011;44258;51.288;12.068;2022-12-07T13:23:25;4.70;;;2.10;;
58470;SDS011;44258;51.288;12.068;2022-12-07T13:25:58;4.85;;;2.30;;
58470;SDS011;44258;51.288;12.068;2022-12-07T13:28:32;6.35;;;2.45;;
58470;SDS011;44258;51.288;12.068;2022-12-07T13:31:14;3.75;;;1.60;;
58470;SDS011;44258;51.288;12.068;2022-12-07T13:33:47;5.07;;;2.03;;
58470;SDS011;44258;51.288;12.068;2022-12-07T13:36:18;7.72;;;2.72;;
58470;SDS011;44258;51.288;12.068;2022-12-07T13:38:49;9.95;;;2.85;;
58470;SDS011;44258;51.288;12.068;2022-12-07T13:41:22;7.80;;;2.60;;
58470;SDS011;44258;51.288;12.068;2022-12-07T13:43:53;6.57;;;2.40;;
58470;SDS011;44258;51.288;12.068;2022-12-07T13:46:27;4.22;;;1.92;;
58470;SDS011;44258;51.288;12.068;2022-12-07T13:49:01;5.03;;;1.67;;
58470;SDS011;44258;51.288;12.068;2022-12-07T13:51:28;6.40;;;2.13;;
58470;SDS011;44258;51.288;12.068;2022-12-07T13:54:06;5.93;;;1.83;;
58470;SDS011;44258;51.288;12.068;2022-12-07T13:56:38;5.15;;;2.25;;
58470;SDS011;44258;51.288;12.068;2022-12-07T13:59:05;6.03;;;2.13;;
58470;SDS011;44258;51.288;12.068;2022-12-07T14:01:40;4.82;;;1.73;;
58470;SDS011;44258;51.288;12.068;2022-12-07T14:06:59;6.80;;;1.70;;
58470;SDS011;44258;51.288;12.068;2022-12-07T14:09:28;8.00;;;2.05;;
58470;SDS011;44258;51.288;12.068;2022-12-07T14:11:56;4.22;;;1.55;;
58470;SDS011;44258;51.288;12.068;2022-12-07T14:14:25;5.68;;;1.77;;
58470;SDS011;44258;51.288;12.068;2022-12-07T14:16:55;4.47;;;1.92;;
58470;SDS011;44258;51.288;12.068;2022-12-07T14:19:44;4.70;;;1.98;;
58470;SDS011;44258;51.288;12.068;2022-12-07T14:22:23;4.43;;;1.90;;
58470;SDS011;44258;51.288;12.068;2022-12-07T14:25:00;5.13;;;1.92;;
58470;SDS011;44258;51.288;12.068;2022-12-07T14:27:39;5.90;;;2.03;;
58470;SDS011;44258;51.288;12.068;2022-12-07T14:30:14;5.43;;;2.17;;
58470;SDS011;44258;51.288;12.068;2022-12-07T14:32:43;7.18;;;2.20;;
58470;SDS011;44258;51.288;12.068;2022-12-07T14:35:13;7.25;;;2.55;;
58470;SDS011;44258;51.288;12.068;2022-12-07T14:37:42;6.80;;;2.60;;
58470;SDS011;44258;51.288;12.068;2022-12-07T14:40:12;5.72;;;2.20;;
58470;SDS011;44258;51.288;12.068;2022-12-07T14:42:41;5.50;;;2.65;;
58470;SDS011;44258;51.288;12.068;2022-12-07T14:45:12;5.30;;;1.55;;
58470;SDS011;44258;51.288;12.068;2022-12-07T14:47:40;4.72;;;1.70;;
58470;SDS011;44258;51.288;12.068;2022-12-07T14:50:07;5.28;;;1.42;;
58470;SDS011;44258;51.288;12.068;2022-12-07T14:52:37;2.70;;;1.52;;
58470;SDS011;44258;51.288;12.068;2022-12-07T14:55:07;6.47;;;2.03;;
58470;SDS011;44258;51.288;12.068;2022-12-07T14:57:41;6.50;;;2.53;;
58470;SDS011;44258;51.288;12.068;2022-12-07T15:00:09;7.22;;;2.15;;
58470;SDS011;44258;51.288;12.068;2022-12-07T15:02:40;5.85;;;2.40;;
58470;SDS011;44258;51.288;12.068;2022-12-07T15:05:07;8.60;;;3.03;;
58470;SDS011;44258;51.288;12.068;2022-12-07T15:07:34;8.52;;;2.83;;
58470;SDS011;44258;51.288;12.068;2022-12-07T15:10:01;8.93;;;3.42;;
58470;SDS011;44258;51.288;12.068;2022-12-07T15:12:28;8.75;;;3.33;;
58470;SDS011;44258;51.288;12.068;2022-12-07T15:14:55;7.85;;;2.60;;
58470;SDS011;44258;51.288;12.068;2022-12-07T15:17:22;6.68;;;3.08;;
58470;SDS011;44258;51.288;12.068;2022-12-07T15:19:49;8.00;;;2.47;;